Time;durP1;ratioP1;P1;durP2;ratioP2;P2;SDS_P1;SDS_P2;PMS_P1;PMS_P2;Temp;Humidity;BMP_temperature;BMP_pressure;BME280_temperature;BME280_humidity;BME280_pressure;Samples;Min_cycle;Max_cycle;Signal;HPM_P1;HPM_P2
2022/08/14 00:01:02;;;;;;;1.10;1.10;;;;;;;24.97;60.14;97201.66;5021213;28;20202;-31
2022/08/14 00:03:36;;;;;;;1.00;1.00;;;;;;;24.97;60.22;97201.66;5012952;28;20209;-31
2022/08/14 00:06:02;;;;;;;1.10;1.10;;;;;;;24.98;59.99;97189.66;4995015;28;20222;-31
2022/08/14 00:08:49;;;;;;;1.23;1.23;;;;;;;24.96;59.77;97191.38;4997888;28;20206;-31
2022/08/14 00:11:16;;;;;;;1.13;1.13;;;;;;;24.96;60.07;97178.50;5027651;28;20219;-31
2022/08/14 00:13:42;;;;;;;1.20;1.20;;;;;;;24.97;59.95;97186.25;5016873;28;20226;-30
2022/08/14 00:16:18;;;;;;;1.27;1.27;;;;;;;24.98;60.49;97179.38;5016143;28;20304;-30
2022/08/14 00:19:04;;;;;;;1.00;1.00;;;;;;;24.96;60.21;97178.50;5021619;28;20222;-31
2022/08/14 00:21:50;;;;;;;1.20;1.10;;;;;;;24.97;60.18;97175.97;5013499;28;20682;-30
2022/08/14 00:24:20;;;;;;;1.10;1.10;;;;;;;24.98;60.08;97182.81;5013329;28;20675;-31
2022/08/14 00:26:55;;;;;;;1.33;1.30;;;;;;;24.95;60.17;97166.47;5012772;28;20281;-31
2022/08/14 00:29:22;;;;;;;1.00;1.00;;;;;;;24.98;60.08;97174.22;5007591;28;20250;-31
2022/08/14 00:31:51;;;;;;;1.23;1.20;;;;;;;24.96;59.95;97179.34;5012584;28;20202;-31
2022/08/14 00:34:22;;;;;;;1.10;1.10;;;;;;;24.97;60.17;97170.81;5022032;28;20198;-31
2022/08/14 00:37:04;;;;;;;1.20;1.20;;;;;;;24.98;60.27;97174.22;5015716;28;20225;-31
2022/08/14 00:39:31;;;;;;;1.20;1.10;;;;;;;24.97;59.79;97175.09;5021125;28;20314;-31
2022/08/14 00:41:57;;;;;;;1.10;1.10;;;;;;;24.97;60.29;97175.97;5012178;28;20198;-31
2022/08/14 00:44:24;;;;;;;1.20;1.20;;;;;;;24.98;60.33;97169.97;5013124;28;20657;-31
2022/08/14 00:47:00;;;;;;;1.00;1.00;;;;;;;24.97;59.95;97175.09;5010954;28;20298;-31
2022/08/14 00:49:28;;;;;;;1.00;1.00;;;;;;;24.96;60.10;97169.06;5010943;28;20229;-31
2022/08/14 00:51:55;;;;;;;1.50;1.20;;;;;;;24.93;59.92;97166.47;5012953;28;20198;-31
2022/08/14 00:54:23;;;;;;;1.37;1.37;;;;;;;24.97;60.40;97169.94;5012383;28;20708;-31
2022/08/14 00:56:50;;;;;;;1.10;1.10;;;;;;;24.97;60.13;97167.38;4995526;28;20281;-31
2022/08/14 00:59:25;;;;;;;1.30;1.20;;;;;;;24.97;60.31;97168.25;5012905;28;20300;-31
2022/08/14 01:01:53;;;;;;;1.20;1.20;;;;;;;24.98;60.14;97169.09;5016316;28;20389;-31
2022/08/14 01:04:21;;;;;;;1.30;1.30;;;;;;;24.97;60.06;97168.25;5003986;28;20214;-31
2022/08/14 01:07:07;;;;;;;1.20;1.20;;;;;;;24.98;59.86;97162.25;4979351;28;20202;-30
2022/08/14 01:09:37;;;;;;;1.40;1.30;;;;;;;24.99;60.45;97165.69;5016777;28;20241;-31
2022/08/14 01:12:05;;;;;;;1.20;1.20;;;;;;;24.98;60.09;97163.94;5026147;28;20205;-31
2022/08/14 01:14:33;;;;;;;1.10;1.10;;;;;;;24.98;59.84;97164.81;5016552;28;20629;-31
2022/08/14 01:17:01;;;;;;;1.20;1.20;;;;;;;24.96;60.39;97157.94;5018838;28;20225;-31
2022/08/14 01:22:14;;;;;;;1.40;1.30;;;;;;;24.98;60.31;97161.38;5027265;28;20662;-31
2022/08/14 01:24:44;;;;;;;1.10;1.10;;;;;;;24.98;60.15;97162.25;5009120;28;20209;-31
2022/08/14 01:27:17;;;;;;;1.37;1.30;;;;;;;24.97;60.31;97157.97;5028837;28;20198;-31
2022/08/14 01:29:45;;;;;;;1.10;1.10;;;;;;;24.97;60.42;97154.50;5015977;28;20232;-31
2022/08/14 01:32:30;;;;;;;1.40;1.30;;;;;;;24.88;60.30;97139.00;5022756;28;20225;-31
2022/08/14 01:35:07;;;;;;;1.20;1.20;;;;;;;24.96;60.31;97145.94;5015886;28;20206;-31
2022/08/14 01:37:54;;;;;;;1.20;1.20;;;;;;;24.87;59.91;97133.00;5023370;28;20210;-31
2022/08/14 01:40:26;;;;;;;1.20;1.20;;;;;;;24.96;60.14;97145.94;4992268;28;20226;-31
2022/08/14 01:43:14;;;;;;;1.20;1.20;;;;;;;24.97;60.35;97139.97;5016649;28;20205;-31
2022/08/14 01:45:44;;;;;;;1.27;1.23;;;;;;;24.97;59.94;97139.09;5015541;28;20267;-30
2022/08/14 01:48:14;;;;;;;1.07;1.07;;;;;;;24.80;60.32;97100.38;5016581;28;20205;-30
2022/08/14 01:50:46;;;;;;;1.37;1.30;;;;;;;24.97;60.24;97124.53;5027741;28;20218;-31
2022/08/14 01:53:12;;;;;;;1.10;1.10;;;;;;;24.98;60.15;97127.94;5024410;28;20226;-31
2022/08/14 01:55:40;;;;;;;1.20;1.20;;;;;;;24.98;60.07;97120.25;5027455;28;20289;-31
2022/08/14 01:58:10;;;;;;;1.20;1.20;;;;;;;24.98;59.95;97115.09;5026579;28;20233;-30
2022/08/14 02:00:55;;;;;;;1.40;1.33;;;;;;;24.97;60.31;97109.13;5022040;28;20222;-31
2022/08/14 02:03:22;;;;;;;1.40;1.30;;;;;;;24.94;59.87;97103.94;5015274;28;20240;-31
2022/08/14 02:05:49;;;;;;;1.43;1.33;;;;;;;24.89;59.99;97089.31;5016648;28;20222;-31
2022/08/14 02:08:15;;;;;;;1.30;1.20;;;;;;;24.89;60.07;97082.47;5031292;28;20232;-31
2022/08/14 02:11:21;;;;;;;1.50;1.40;;;;;;;24.97;60.40;97100.53;5017284;28;20465;-31
2022/08/14 02:13:48;;;;;;;1.40;1.30;;;;;;;24.97;59.99;97093.69;5014982;28;20214;-31
2022/08/14 02:16:17;;;;;;;1.30;1.20;;;;;;;24.96;60.46;97094.50;5014580;28;20220;-30
2022/08/14 02:18:48;;;;;;;1.33;1.23;;;;;;;24.93;59.90;97085.94;5015109;28;20202;-31
2022/08/14 02:21:17;;;;;;;1.40;1.30;;;;;;;24.94;60.47;97085.06;5015373;28;20226;-31
2022/08/14 02:23:50;;;;;;;1.20;1.20;;;;;;;24.96;59.97;97085.97;5031518;28;20206;-30
2022/08/14 02:26:24;;;;;;;1.30;1.30;;;;;;;24.96;60.32;97083.38;5017601;28;20249;-31
2022/08/14 02:29:01;;;;;;;1.13;1.13;;;;;;;24.97;60.39;97077.38;5023174;28;20233;-31
2022/08/14 02:31:31;;;;;;;1.50;1.40;;;;;;;24.91;60.35;97072.19;5018528;28;20281;-31
2022/08/14 02:34:17;;;;;;;1.23;1.23;;;;;;;24.97;60.07;97073.13;5016021;28;20225;-30
2022/08/14 02:36:52;;;;;;;1.40;1.30;;;;;;;24.96;60.12;97073.94;5016409;28;20250;-31
2022/08/14 02:39:32;;;;;;;1.50;1.40;;;;;;;24.97;60.21;97077.38;5027971;28;20708;-31
2022/08/14 02:41:58;;;;;;;1.37;1.30;;;;;;;24.91;60.36;97061.91;5028014;28;20681;-31
2022/08/14 02:44:29;;;;;;;1.20;1.20;;;;;;;24.97;59.81;97061.97;5021917;28;20236;-31
2022/08/14 02:46:56;;;;;;;1.30;1.30;;;;;;;24.97;60.40;97064.53;5017872;28;20201;-30
2022/08/14 02:49:27;;;;;;;1.40;1.30;;;;;;;24.98;59.94;97063.66;5029285;28;20712;-31
2022/08/14 02:52:00;;;;;;;1.30;1.30;;;;;;;24.96;60.08;97057.69;5016384;28;20220;-31
2022/08/14 02:54:41;;;;;;;1.53;1.20;;;;;;;24.97;60.37;97057.69;5014970;28;20202;-31
2022/08/14 02:57:07;;;;;;;1.30;1.30;;;;;;;24.97;60.35;97046.53;5014122;28;20666;-31
2022/08/14 02:59:54;;;;;;;1.50;1.40;;;;;;;24.96;60.23;97043.09;5015185;28;20222;-31
2022/08/14 03:02:22;;;;;;;1.50;1.40;;;;;;;24.96;60.02;97050.81;4981142;28;20214;-31
2022/08/14 03:05:11;;;;;;;1.30;1.30;;;;;;;24.90;60.28;97037.91;5022482;28;20202;-31
2022/08/14 03:07:39;;;;;;;1.20;1.20;;;;;;;24.95;60.00;97054.22;4997664;28;20654;-31
2022/08/14 03:10:07;;;;;;;1.30;1.30;;;;;;;24.96;60.51;97060.25;5057351;22;20236;-24
2022/08/14 03:12:54;;;;;;;1.40;1.30;;;;;;;24.95;60.05;97059.38;5050748;28;20203;-24
2022/08/14 03:15:21;;;;;;;1.50;1.40;;;;;;;24.91;60.33;97051.63;5051195;28;20236;-24
2022/08/14 03:17:49;;;;;;;1.57;1.47;;;;;;;24.95;60.88;97053.38;5053165;28;20673;-24
2022/08/14 03:20:27;;;;;;;1.30;1.30;;;;;;;24.96;59.89;97044.81;5055460;28;20216;-24
2022/08/14 03:22:57;;;;;;;1.53;1.43;;;;;;;24.97;60.24;97049.09;5051582;28;20209;-24
2022/08/14 03:25:25;;;;;;;1.23;1.23;;;;;;;24.97;59.91;97043.97;5051328;28;20570;-24
2022/08/14 03:27:52;;;;;;;1.40;1.30;;;;;;;24.97;60.32;97051.69;5051477;28;20197;-24
2022/08/14 03:30:25;;;;;;;1.60;1.50;;;;;;;24.97;59.95;97043.97;5050659;28;20224;-24
2022/08/14 03:33:07;;;;;;;1.53;1.43;;;;;;;24.97;60.30;97052.56;5051245;28;20204;-24
2022/08/14 03:35:36;;;;;;;1.60;1.50;;;;;;;24.96;60.48;97045.66;5051529;28;20197;-24
2022/08/14 03:38:22;;;;;;;1.10;1.10;;;;;;;24.97;60.45;97052.56;5051381;28;20291;-24
2022/08/14 03:41:13;;;;;;;1.43;1.40;;;;;;;24.96;60.40;97043.09;5044460;28;20739;-24
2022/08/14 03:43:40;;;;;;;1.70;1.60;;;;;;;24.97;60.51;97042.25;5050823;28;20236;-25
2022/08/14 03:46:07;;;;;;;1.50;1.40;;;;;;;24.97;60.16;97036.25;5043490;28;20193;-24
2022/08/14 03:48:54;;;;;;;1.40;1.40;;;;;;;24.96;59.97;97024.25;5049370;28;20193;-24
2022/08/14 03:51:21;;;;;;;1.50;1.40;;;;;;;24.79;60.46;96995.84;5051052;28;20263;-24
2022/08/14 03:53:48;;;;;;;1.50;1.40;;;;;;;24.95;60.00;97022.50;5052066;28;20197;-24
2022/08/14 03:56:15;;;;;;;1.50;1.40;;;;;;;24.94;60.18;97020.81;5053368;28;20220;-24
2022/08/14 03:58:48;;;;;;;2.00;1.43;;;;;;;24.79;60.48;96987.28;5050907;28;20741;-25
2022/08/14 04:01:18;;;;;;;1.60;1.50;;;;;;;24.92;60.30;97004.50;5051222;28;20248;-24
2022/08/14 04:03:46;;;;;;;1.47;1.40;;;;;;;24.96;60.45;97016.53;5050901;28;20223;-24
2022/08/14 04:06:13;;;;;;;1.43;1.40;;;;;;;24.96;59.96;97006.25;5051237;28;20204;-24
2022/08/14 04:08:48;;;;;;;1.80;1.70;;;;;;;24.96;60.10;96998.56;5050797;28;20212;-24
2022/08/14 04:11:15;;;;;;;1.50;1.40;;;;;;;24.97;60.09;97003.69;5050518;28;20279;-24
2022/08/14 04:13:43;;;;;;;1.50;1.40;;;;;;;24.97;60.21;97002.84;5050693;28;20201;-24
2022/08/14 04:16:21;;;;;;;1.60;1.50;;;;;;;24.96;60.30;97007.09;5050301;28;20197;-24
2022/08/14 04:18:52;;;;;;;1.50;1.40;;;;;;;24.96;60.44;96999.38;5050938;28;20287;-24
2022/08/14 04:21:22;;;;;;;1.30;1.30;;;;;;;24.96;60.27;97004.53;5050512;28;20216;-24
2022/08/14 04:23:49;;;;;;;1.67;1.57;;;;;;;24.96;60.25;96996.81;5050771;28;20228;-24
2022/08/14 04:26:26;;;;;;;1.50;1.40;;;;;;;24.96;60.07;97001.97;5050203;28;20458;-24
2022/08/14 04:29:10;;;;;;;1.50;1.40;;;;;;;24.92;60.21;97001.94;5042915;28;20676;-24
2022/08/14 04:31:42;;;;;;;1.43;1.33;;;;;;;24.96;60.25;96991.69;5050624;28;20207;-24
2022/08/14 04:34:28;;;;;;;1.20;1.20;;;;;;;24.96;60.13;96988.25;5050368;28;20687;-24
2022/08/14 04:45:22;;;;;;;1.57;1.47;;;;;;;24.95;60.41;96974.53;5054175;28;20204;-24
2022/08/14 04:50:37;;;;;;;1.70;1.60;;;;;;;24.96;60.17;96980.56;5050129;28;20274;-24
2022/08/14 04:53:16;;;;;;;1.40;1.30;;;;;;;24.96;60.50;96985.69;5048497;28;20664;-24
2022/08/14 04:55:48;;;;;;;1.70;1.60;;;;;;;24.96;60.10;96977.97;5057444;28;20231;-24
2022/08/14 04:58:21;;;;;;;1.60;1.50;;;;;;;24.96;60.44;96968.53;5054374;28;20270;-24
2022/08/14 05:00:59;;;;;;;1.50;1.40;;;;;;;24.96;60.27;96968.53;5053785;28;20592;-24
2022/08/14 05:03:27;;;;;;;1.60;1.50;;;;;;;24.97;60.16;96969.41;5054109;28;20270;-24
2022/08/14 05:05:55;;;;;;;1.57;1.47;;;;;;;24.95;60.31;96979.69;5053297;28;20233;-24
2022/08/14 05:08:22;;;;;;;1.60;1.50;;;;;;;24.97;60.13;96984.84;5053805;28;20743;-24
2022/08/14 05:11:09;;;;;;;1.70;1.60;;;;;;;24.95;60.29;96979.69;5053561;28;20224;-24
2022/08/14 05:13:39;;;;;;;1.60;1.50;;;;;;;24.97;60.03;96971.97;5054212;28;20205;-24
2022/08/14 05:16:28;;;;;;;1.90;1.80;;;;;;;24.97;60.38;96980.56;5058875;28;20204;-24
2022/08/14 05:18:54;;;;;;;1.67;1.57;;;;;;;24.96;60.68;96981.41;5055386;28;20205;-24
2022/08/14 05:21:41;;;;;;;1.80;1.70;;;;;;;24.96;60.42;96983.13;5056755;28;20204;-24
2022/08/14 05:24:28;;;;;;;1.47;1.40;;;;;;;24.95;60.00;96979.69;5040491;28;20207;-24
2022/08/14 05:26:55;;;;;;;1.60;1.50;;;;;;;24.95;60.04;96983.94;5054503;28;20229;-24
2022/08/14 05:29:22;;;;;;;1.60;1.50;;;;;;;24.95;60.33;96971.09;5053446;28;20229;-25
2022/08/14 05:31:48;;;;;;;1.83;1.73;;;;;;;24.95;60.09;96968.53;5055932;28;20208;-24
2022/08/14 05:34:22;;;;;;;1.70;1.60;;;;;;;24.95;60.12;96969.41;5053406;28;20207;-24
2022/08/14 05:36:56;;;;;;;1.60;1.50;;;;;;;24.95;60.37;96968.53;5051615;28;20303;-24
2022/08/14 05:39:28;;;;;;;1.60;1.50;;;;;;;24.96;60.12;96971.09;5052953;28;20228;-24
2022/08/14 05:41:56;;;;;;;1.60;1.50;;;;;;;24.97;60.15;96982.25;5053996;28;20197;-24
2022/08/14 05:44:23;;;;;;;1.60;1.50;;;;;;;24.96;60.24;96989.09;5035115;28;20742;-24
2022/08/14 05:46:56;;;;;;;1.50;1.40;;;;;;;24.96;60.36;96989.09;5053020;28;20266;-24
2022/08/14 05:49:22;;;;;;;1.50;1.40;;;;;;;24.96;60.09;96991.69;5052916;28;20658;-24
2022/08/14 05:51:59;;;;;;;1.80;1.70;;;;;;;24.96;60.38;96996.81;5059206;28;20205;-24
2022/08/14 05:54:27;;;;;;;1.77;1.67;;;;;;;24.97;60.48;97005.41;5053061;28;20462;-24
2022/08/14 05:57:03;;;;;;;1.70;1.60;;;;;;;24.97;60.42;97000.25;5059043;28;20221;-24
2022/08/14 05:59:30;;;;;;;1.83;1.73;;;;;;;24.90;60.24;96995.94;5052743;28;20778;-24
2022/08/14 06:02:08;;;;;;;1.80;1.70;;;;;;;24.96;60.57;97009.66;5052619;28;20567;-24
2022/08/14 06:04:37;;;;;;;1.73;1.63;;;;;;;24.96;60.49;97013.97;5049148;28;20274;-24
2022/08/14 06:07:04;;;;;;;1.63;1.53;;;;;;;24.96;60.12;97012.25;5052321;28;20284;-25
2022/08/14 06:09:31;;;;;;;1.73;1.63;;;;;;;24.97;60.43;97005.41;5056972;28;20817;-24
2022/08/14 06:12:09;;;;;;;1.70;1.60;;;;;;;24.90;60.45;97001.06;5052653;28;20196;-24
2022/08/14 06:14:37;;;;;;;1.80;1.70;;;;;;;24.96;60.34;97006.25;5052061;28;20197;-24
2022/08/14 06:17:04;;;;;;;1.70;1.60;;;;;;;24.95;60.57;97007.97;5052233;28;20573;-25
2022/08/14 06:19:31;;;;;;;1.70;1.60;;;;;;;24.96;60.10;97008.84;5052222;28;20247;-24
2022/08/14 06:21:57;;;;;;;1.60;1.50;;;;;;;24.96;60.09;97006.25;5052357;28;20232;-24
2022/08/14 06:24:25;;;;;;;2.27;1.80;;;;;;;24.93;60.18;96993.38;5052101;28;20232;-24
2022/08/14 06:26:52;;;;;;;1.80;1.70;;;;;;;24.96;60.57;97001.97;5052144;28;20233;-24
2022/08/14 06:29:29;;;;;;;1.87;1.77;;;;;;;24.96;60.63;97001.97;5052486;28;20227;-24
2022/08/14 06:32:00;;;;;;;1.80;1.70;;;;;;;24.96;60.08;96998.56;5052425;28;20827;-24
2022/08/14 06:34:46;;;;;;;1.80;1.70;;;;;;;24.97;60.11;97005.41;5052387;28;20215;-24
2022/08/14 06:37:57;;;;;;;1.90;1.80;;;;;;;24.96;60.15;97003.69;5052277;28;20216;-24
2022/08/14 06:40:24;;;;;;;1.90;1.80;;;;;;;24.96;60.07;97001.97;5046706;28;20283;-24
2022/08/14 06:42:58;;;;;;;1.60;1.50;;;;;;;24.96;60.22;97001.97;5051982;28;20197;-24
2022/08/14 06:45:29;;;;;;;1.90;1.80;;;;;;;24.97;60.39;97000.25;5046672;28;20220;-24
2022/08/14 06:47:55;;;;;;;1.70;1.60;;;;;;;24.96;60.44;97008.84;5051842;28;20294;-24
2022/08/14 06:50:26;;;;;;;1.60;1.50;;;;;;;24.96;60.53;97008.84;5051783;28;20225;-24
2022/08/14 06:52:58;;;;;;;1.80;1.70;;;;;;;24.96;60.19;97008.84;5053409;28;20686;-24
2022/08/14 06:55:25;;;;;;;1.80;1.70;;;;;;;24.96;60.24;97009.66;5052133;28;20262;-24
2022/08/14 06:57:54;;;;;;;1.77;1.67;;;;;;;24.96;60.52;97008.84;5052781;28;20707;-24
2022/08/14 07:00:27;;;;;;;1.70;1.60;;;;;;;24.95;59.99;97012.22;5051511;28;20256;-24
2022/08/14 07:05:46;;;;;;;1.80;1.70;;;;;;;24.92;60.04;97007.94;5052170;28;20201;-24
2022/08/14 07:08:26;;;;;;;1.60;1.50;;;;;;;24.93;60.30;97004.50;5051488;28;20619;-24
2022/08/14 07:10:58;;;;;;;1.70;1.60;;;;;;;24.96;60.31;97006.25;5050873;28;20260;-24
2022/08/14 07:13:27;;;;;;;2.00;1.90;;;;;;;24.85;60.51;96979.59;5050965;28;20232;-24
2022/08/14 07:15:54;;;;;;;1.80;1.70;;;;;;;24.96;60.41;96998.56;5056108;28;20197;-24
2022/08/14 07:18:25;;;;;;;1.67;1.57;;;;;;;24.96;60.33;96998.56;5051019;28;20702;-24
2022/08/14 07:20:52;;;;;;;1.73;1.63;;;;;;;24.93;60.49;96998.53;5051196;28;20620;-25
2022/08/14 07:23:22;;;;;;;1.83;1.73;;;;;;;24.96;60.46;97004.53;5051522;28;20241;-24
2022/08/14 07:25:51;;;;;;;1.90;1.80;;;;;;;24.96;60.03;96996.81;5051345;28;20365;-24
2022/08/14 07:28:22;;;;;;;1.90;1.80;;;;;;;24.97;60.54;96989.97;5051425;28;20197;-24
2022/08/14 07:30:51;;;;;;;2.00;1.90;;;;;;;24.91;60.61;96974.50;5050777;28;20244;-24
2022/08/14 07:33:18;;;;;;;1.73;1.63;;;;;;;24.96;60.24;96968.53;5050791;28;20197;-24
2022/08/14 07:35:55;;;;;;;1.80;1.70;;;;;;;24.97;60.47;96969.41;5050769;28;20623;-24
2022/08/14 07:38:26;;;;;;;2.00;1.90;;;;;;;24.96;60.32;96971.09;5051072;28;20260;-24
2022/08/14 07:41:01;;;;;;;1.70;1.60;;;;;;;24.96;59.79;96968.53;5050668;28;20224;-24
2022/08/14 07:43:28;;;;;;;1.80;1.70;;;;;;;24.96;60.43;96965.13;5050852;28;20241;-24
2022/08/14 07:45:55;;;;;;;1.83;1.73;;;;;;;24.85;60.67;96941.06;5050813;28;20256;-24
2022/08/14 07:48:22;;;;;;;2.00;1.90;;;;;;;24.95;60.21;96945.38;5050480;28;20280;-24
2022/08/14 07:50:50;;;;;;;1.80;1.70;;;;;;;24.96;60.33;96934.28;5050789;28;20224;-24
2022/08/14 07:53:17;;;;;;;1.77;1.67;;;;;;;24.95;60.19;96925.69;5050455;28;20251;-24
2022/08/14 07:55:45;;;;;;;1.67;1.57;;;;;;;24.90;60.17;96917.09;5053116;28;20207;-24
2022/08/14 07:58:25;;;;;;;1.80;1.70;;;;;;;24.96;60.60;96926.56;5050680;28;20220;-24
2022/08/14 08:01:00;;;;;;;2.10;2.00;;;;;;;24.91;60.07;96921.41;5033794;28;20231;-24
2022/08/14 08:03:26;;;;;;;1.70;1.60;;;;;;;24.88;60.32;96920.50;5016771;28;20644;-24
2022/08/14 08:05:55;;;;;;;1.70;1.60;;;;;;;24.96;60.41;96922.25;5035921;28;20205;-24
2022/08/14 08:08:22;;;;;;;1.70;1.60;;;;;;;24.97;60.33;96933.41;5032824;28;20232;-24
2022/08/14 08:10:56;;;;;;;1.80;1.70;;;;;;;24.97;60.14;96930.84;5017715;28;20283;-24
2022/08/14 08:13:29;;;;;;;1.80;1.70;;;;;;;24.96;60.02;96919.69;5050528;28;20287;-24
2022/08/14 08:15:56;;;;;;;2.00;1.90;;;;;;;24.95;60.03;96910.28;5018808;28;20248;-24
2022/08/14 08:18:23;;;;;;;1.80;1.70;;;;;;;24.96;60.07;96914.56;5050285;28;20227;-24
2022/08/14 08:20:55;;;;;;;1.80;1.70;;;;;;;24.98;60.54;96919.69;5049976;28;20707;-24
2022/08/14 08:23:27;;;;;;;1.87;1.77;;;;;;;24.97;60.21;96923.13;5050301;28;20687;-24
2022/08/14 08:26:09;;;;;;;2.00;1.90;;;;;;;24.97;60.35;96920.56;5050130;28;20204;-24
2022/08/14 08:28:35;;;;;;;1.70;1.60;;;;;;;24.96;60.46;96917.13;5050609;28;20682;-24
2022/08/14 08:31:04;;;;;;;1.80;1.70;;;;;;;24.95;60.45;96923.13;5015984;28;20786;-24
2022/08/14 08:33:32;;;;;;;1.70;1.60;;;;;;;24.95;60.34;96923.13;5045770;28;20212;-25
2022/08/14 08:36:05;;;;;;;1.70;1.60;;;;;;;24.96;60.43;96922.25;5050020;28;20251;-24
2022/08/14 08:38:33;;;;;;;2.03;1.93;;;;;;;24.96;60.53;96916.28;5056106;28;20220;-24
2022/08/14 08:41:19;;;;;;;1.90;1.80;;;;;;;24.96;60.42;96913.72;5049987;28;20225;-24
2022/08/14 08:43:46;;;;;;;1.90;1.80;;;;;;;24.89;60.33;96904.22;5050164;28;20228;-24
2022/08/14 08:46:21;;;;;;;1.80;1.70;;;;;;;24.90;60.21;96905.97;5050295;28;20201;-24
2022/08/14 08:48:51;;;;;;;1.90;1.80;;;;;;;24.91;60.45;96908.53;5048013;28;20284;-24
2022/08/14 08:51:32;;;;;;;1.83;1.73;;;;;;;24.96;60.35;96909.41;5050233;28;20707;-24
2022/08/14 08:54:02;;;;;;;1.80;1.70;;;;;;;24.97;60.42;96908.56;5048941;28;20208;-24
2022/08/14 08:56:45;;;;;;;2.27;2.10;;;;;;;24.96;60.00;96898.28;5049683;28;20211;-24
2022/08/14 08:59:21;;;;;;;1.90;1.80;;;;;;;24.97;60.63;96897.44;5053507;28;20261;-24
2022/08/14 09:02:01;;;;;;;1.97;1.87;;;;;;;24.97;60.14;96905.13;5051107;28;20201;-24
2022/08/14 09:04:34;;;;;;;1.83;1.73;;;;;;;24.97;60.13;96900.88;5049805;28;20640;-24
2022/08/14 09:07:10;;;;;;;1.70;1.60;;;;;;;24.97;60.43;96902.56;5033683;28;20265;-24
2022/08/14 09:12:24;;;;;;;1.90;1.80;;;;;;;24.93;60.51;96888.00;5030176;28;20213;-31
2022/08/14 09:14:52;;;;;;;1.60;1.50;;;;;;;24.90;60.32;96881.09;5032684;28;20305;-31
2022/08/14 09:17:19;;;;;;;1.70;1.60;;;;;;;24.96;60.42;96900.84;4998961;28;20205;-31
2022/08/14 09:19:52;;;;;;;1.90;1.80;;;;;;;24.95;60.13;96899.13;5011577;28;20214;-31
2022/08/14 09:22:18;;;;;;;1.80;1.70;;;;;;;24.93;60.17;96893.13;5014871;28;20210;-31
2022/08/14 09:25:01;;;;;;;1.70;1.60;;;;;;;24.95;60.39;96893.97;5003096;28;20679;-31
2022/08/14 09:27:28;;;;;;;1.83;1.73;;;;;;;24.95;60.26;96874.28;5033208;28;20276;-31
2022/08/14 09:29:55;;;;;;;1.90;1.80;;;;;;;24.96;60.09;96891.41;5035354;28;20312;-31
2022/08/14 09:32:26;;;;;;;1.80;1.70;;;;;;;24.96;60.60;96859.72;5035553;28;20198;-31
2022/08/14 09:35:39;;;;;;;2.10;2.00;;;;;;;24.96;60.09;96860.56;5019856;28;20197;-31
2022/08/14 09:38:09;;;;;;;1.87;1.77;;;;;;;24.91;60.12;96859.69;5011622;28;20685;-31
2022/08/14 09:41:12;;;;;;;1.83;1.73;;;;;;;24.96;60.59;96867.44;5020761;28;20221;-31
2022/08/14 09:43:58;;;;;;;1.97;1.87;;;;;;;24.96;60.54;96876.00;5035435;28;20289;-30
2022/08/14 09:46:26;;;;;;;2.17;2.07;;;;;;;24.96;60.44;96881.13;5035770;28;20289;-31
2022/08/14 09:49:00;;;;;;;1.97;1.87;;;;;;;24.89;60.41;96856.25;5018325;28;20193;-31
2022/08/14 09:51:27;;;;;;;1.87;1.77;;;;;;;24.95;60.07;96873.41;5034704;28;20225;-31
2022/08/14 09:54:08;;;;;;;2.10;2.00;;;;;;;24.90;60.20;96862.25;5035749;28;20198;-30
2022/08/14 09:56:49;;;;;;;1.83;1.73;;;;;;;24.95;60.37;96865.69;5031159;28;20197;-31
2022/08/14 09:59:24;;;;;;;1.90;1.80;;;;;;;24.94;60.54;96856.28;5035212;28;20252;-31
2022/08/14 10:01:55;;;;;;;1.80;1.70;;;;;;;24.90;60.11;96855.38;5035099;28;20197;-31
2022/08/14 10:04:24;;;;;;;1.97;1.87;;;;;;;24.90;60.49;96854.56;5002448;28;20203;-31
2022/08/14 10:07:01;;;;;;;2.00;1.90;;;;;;;24.92;60.35;96848.56;5019174;28;20976;-31
2022/08/14 10:09:29;;;;;;;1.93;1.83;;;;;;;24.91;60.47;96849.41;5013288;28;20202;-31
2022/08/14 10:12:00;;;;;;;1.90;1.80;;;;;;;24.95;60.51;96850.28;5034726;28;20237;-31
2022/08/14 10:14:32;;;;;;;1.87;1.77;;;;;;;24.95;60.31;96847.69;5034728;28;20591;-31
2022/08/14 10:17:03;;;;;;;2.00;1.90;;;;;;;24.96;60.53;96852.00;5034611;28;20221;-30
2022/08/14 10:19:32;;;;;;;1.83;1.73;;;;;;;24.96;60.18;96852.84;5033312;28;20218;-31
2022/08/14 10:22:09;;;;;;;1.87;1.77;;;;;;;24.96;60.22;96847.72;5017534;28;20209;-31
2022/08/14 10:24:55;;;;;;;2.00;1.90;;;;;;;24.96;60.55;96844.31;5034965;28;20210;-31
2022/08/14 10:27:23;;;;;;;2.00;1.90;;;;;;;24.95;60.60;96843.44;5035274;28;20208;-31
2022/08/14 10:29:54;;;;;;;2.10;2.00;;;;;;;24.96;60.14;96842.56;5034998;28;20217;-31
2022/08/14 10:32:24;;;;;;;1.70;1.60;;;;;;;24.96;60.00;96832.28;5034551;28;20676;-31
2022/08/14 10:35:06;;;;;;;1.80;1.70;;;;;;;24.96;60.42;96829.72;5018701;28;20221;-31
2022/08/14 10:37:49;;;;;;;1.90;1.80;;;;;;;24.97;60.29;96822.88;5035045;28;20205;-31
2022/08/14 10:40:29;;;;;;;2.17;2.07;;;;;;;24.97;60.50;96825.44;5033561;28;20227;-31
2022/08/14 10:43:25;;;;;;;2.10;2.00;;;;;;;24.96;60.64;96823.75;5034306;28;20198;-31
2022/08/14 10:45:57;;;;;;;2.10;2.00;;;;;;;24.96;60.41;96824.56;5016633;28;20205;-31
2022/08/14 10:49:01;;;;;;;2.00;1.90;;;;;;;24.96;60.65;96828.88;5027383;28;20194;-30
2022/08/14 10:51:32;;;;;;;1.83;1.73;;;;;;;24.91;60.69;96813.44;5033914;28;20225;-31
2022/08/14 10:54:09;;;;;;;1.87;1.77;;;;;;;24.95;60.13;96817.72;5034377;28;20201;-30
2022/08/14 10:56:57;;;;;;;2.00;1.90;;;;;;;24.96;60.57;96818.59;5034160;28;20216;-31
2022/08/14 10:59:23;;;;;;;2.00;1.90;;;;;;;24.94;60.19;96799.72;5034582;28;20217;-31
2022/08/14 11:02:00;;;;;;;2.07;1.97;;;;;;;24.87;60.34;96796.25;5034793;28;20209;-30
2022/08/14 11:04:28;;;;;;;2.00;1.90;;;;;;;24.95;60.56;96817.72;5016294;28;20264;-31
2022/08/14 11:06:55;;;;;;;1.90;1.80;;;;;;;24.96;60.65;96816.03;5016518;28;20584;-31
2022/08/14 11:09:22;;;;;;;2.00;1.90;;;;;;;24.95;60.18;96811.72;5034905;28;20255;-31
2022/08/14 11:11:57;;;;;;;1.93;1.83;;;;;;;24.94;60.53;96815.16;5034236;28;20208;-30
2022/08/14 11:15:02;;;;;;;1.93;1.83;;;;;;;24.85;60.50;96797.97;5028660;28;20198;-31
2022/08/14 11:17:30;;;;;;;2.03;1.93;;;;;;;24.90;60.39;96792.88;5015748;28;20213;-31
2022/08/14 11:19:59;;;;;;;1.80;1.70;;;;;;;24.96;60.11;96798.03;5032093;28;20719;-31
2022/08/14 11:22:26;;;;;;;1.93;1.83;;;;;;;24.97;60.32;96789.44;5027238;28;20197;-31
2022/08/14 11:25:14;;;;;;;1.87;1.77;;;;;;;24.94;60.02;96786.88;5034083;28;20208;-31
2022/08/14 11:27:42;;;;;;;1.90;1.80;;;;;;;24.96;60.42;96786.00;5033794;28;20616;-31
2022/08/14 11:30:13;;;;;;;2.10;2.00;;;;;;;24.97;60.56;96789.44;5033335;28;20217;-31
2022/08/14 11:33:02;;;;;;;2.00;1.90;;;;;;;24.96;60.41;96777.47;5033360;28;20211;-31
2022/08/14 11:35:30;;;;;;;1.90;1.80;;;;;;;24.96;60.26;96767.19;5033147;28;20212;-31
2022/08/14 11:38:13;;;;;;;1.87;1.77;;;;;;;24.93;59.82;96769.75;5029503;28;20594;-31
2022/08/14 11:40:42;;;;;;;1.87;1.77;;;;;;;24.95;60.47;96768.88;5033118;28;20225;-31
2022/08/14 11:43:12;;;;;;;2.00;1.90;;;;;;;24.92;60.19;96770.56;5033276;28;20208;-31
2022/08/14 11:45:40;;;;;;;1.93;1.83;;;;;;;24.96;60.23;96767.19;5033179;28;20198;-31
2022/08/14 11:48:23;;;;;;;1.90;1.80;;;;;;;24.88;60.10;96744.03;4999523;28;20246;-31
2022/08/14 11:51:13;;;;;;;2.20;2.10;;;;;;;24.92;60.18;96750.88;5032726;28;20323;-30
2022/08/14 11:53:42;;;;;;;2.10;2.00;;;;;;;24.96;60.16;96756.91;5033831;28;20482;-31
2022/08/14 11:56:11;;;;;;;2.03;1.93;;;;;;;24.96;60.11;96749.19;5032720;28;20255;-31
2022/08/14 11:58:38;;;;;;;2.00;1.90;;;;;;;24.96;60.60;96731.19;5033475;28;20453;-31
2022/08/14 12:01:06;;;;;;;2.00;1.90;;;;;;;24.97;60.25;96736.34;4999403;28;20240;-31
2022/08/14 12:03:38;;;;;;;1.90;1.80;;;;;;;24.96;60.47;96726.88;5033093;28;20197;-31
2022/08/14 12:06:18;;;;;;;1.90;1.80;;;;;;;24.97;60.13;96730.31;5029617;28;20656;-30
2022/08/14 12:09:04;;;;;;;2.00;1.90;;;;;;;24.96;60.43;96721.75;5033219;28;20197;-31
2022/08/14 12:11:40;;;;;;;1.90;1.80;;;;;;;24.97;60.62;96717.47;5033367;28;20240;-31
2022/08/14 12:14:13;;;;;;;1.90;1.80;;;;;;;24.96;60.48;96716.59;5028020;28;20197;-31
2022/08/14 12:17:06;;;;;;;1.80;1.70;;;;;;;24.97;60.48;96709.75;5032703;28;20210;-31
2022/08/14 12:19:48;;;;;;;2.00;1.90;;;;;;;24.97;60.22;96704.63;5032939;28;20221;-31
2022/08/14 12:22:17;;;;;;;1.90;1.80;;;;;;;24.97;60.43;96709.75;5026660;28;20205;-31